LFRM/LME METAR and TAF weather

Enter ICAO airport designator
Station Type Date Time Source
LFRM METAR 2020/04/10 19:00 UTC NOAA

LFRM 101900Z AUTO 06002KT CAVOK 20/04 Q1020


Station Type Date Time Source
LFRM Decoded METAR 2020/04/10 19:00 UTC NOAA

Le Mans, France (LFRM) 47-56N 000-12E 52M
Apr 10, 2020 - 03:00 PM EDT / 2020.04.10 1900 UTC
Wind: from the ENE (060 degrees) at 2 MPH (2 KT):0
Visibility: greater than 7 mile(s):0
Temperature: 68 F (20 C)
Dew Point: 39 F (4 C)
Relative Humidity: 34%
Pressure (altimeter): 30.12 in. Hg (1020 hPa)
ob: LFRM 101900Z AUTO 06002KT CAVOK 20/04 Q1020
cycle: 19

Station Type Date Time Source
LFRM TAF 2020/03/24 19:19 UTC NOAA

TAF LFRM 241908Z 2419/2512 CNL

Example: see airport list